This is the latest recevied weather packets stored in our database for station/object I2HLY-3. If no packets are shown the sender has not sent any weather packets the latest 10 day(s).
| Time | Temp. | Humidity | Pressure | Rain* | Wind** | Luminosity | Snow |
|---|---|---|---|---|---|---|---|
| 1777417341 | 15.56° C | 91% | 1014.2 hPa | 7.11 mm | - | - | - |
| 1777416443 | 15.56° C | 90% | 1014.3 hPa | 5.08 mm | - | - | - |
| 1777415549 | 16.67° C | 86% | 1014.4 hPa | 3.05 mm | - | - | - |
| 1777414651 | 17.22° C | 80% | 1014 hPa | 0 mm | - | - | - |
| 1777413753 | 18.33° C | 77% | 1013.8 hPa | 0 mm | - | - | - |
| 1777412837 | 18.33° C | 74% | 1013.5 hPa | 0 mm | - | - | - |
| 1777411937 | 17.22° C | 79% | 1013.3 hPa | 0 mm | - | - | - |
| 1777411039 | 16.67° C | 80% | 1013 hPa | 0 mm | - | - | - |
| 1777410145 | 17.22° C | 80% | 1012.9 hPa | 0 mm | - | - | - |
| 1777409244 | 17.22° C | 79% | 1012.9 hPa | 0 mm | - | - | - |
| 1777408347 | 17.22° C | 76% | 1012.8 hPa | 0 mm | - | - | - |
| 1777407453 | 17.78° C | 75% | 1012.8 hPa | 0 mm | - | - | - |
| 1777406554 | 17.78° C | 74% | 1012.8 hPa | 0 mm | - | - | - |
| 1777405637 | 18.33° C | 71% | 1012.8 hPa | 0 mm | - | - | - |
| 1777404743 | 18.33° C | 71% | 1012.6 hPa | 0 mm | - | - | - |
| 1777403844 | 18.33° C | 70% | 1012.5 hPa | 0 mm | - | - | - |
| 1777402947 | 18.89° C | 69% | 1012.4 hPa | 0 mm | - | - | - |
| 1777402049 | 18.89° C | 68% | 1012.3 hPa | 0 mm | - | - | - |
| 1777401155 | 19.44° C | 67% | 1012.2 hPa | 0 mm | - | - | - |
| 1777400255 | 19.44° C | 66% | 1012.2 hPa | 0 mm | - | - | - |
| 1777399336 | 20° C | 65% | 1012.1 hPa | 0 mm | - | - | - |
| 1777398442 | 20° C | 63% | 1012.1 hPa | 0 mm | - | - | - |
| 1777397543 | 20.56° C | 62% | 1012 hPa | 0 mm | - | - | - |
| 1777396645 | 21.11° C | 61% | 1012 hPa | 0 mm | - | - | - |
| 1777395748 | 21.67° C | 58% | 1012 hPa | 0 mm | - | - | - |
* Rain latest hour (hover to see other rain measurements)
** Current wind speed in m/s (hover to see current wind gust speed)